createdAt,value
2022-10-17T00:00:18.505Z,6.50
2022-10-17T00:01:18.488Z,7.20
2022-10-17T00:02:18.498Z,7.80
2022-10-17T00:03:18.468Z,8.50
2022-10-17T00:04:18.428Z,6.30
2022-10-17T00:05:18.371Z,8.40
2022-10-17T00:06:18.385Z,6.50
2022-10-17T00:07:18.512Z,6.50
2022-10-17T00:08:18.312Z,5.10
2022-10-17T00:09:18.340Z,6.00
2022-10-17T00:10:18.362Z,6.00
2022-10-17T00:11:18.352Z,5.60
2022-10-17T00:12:18.375Z,6.80
2022-10-17T00:13:18.310Z,9.70
2022-10-17T00:14:18.231Z,5.90
2022-10-17T00:15:18.267Z,5.20
2022-10-17T00:16:18.861Z,4.20
2022-10-17T00:17:18.323Z,4.50
2022-10-17T00:18:18.251Z,4.00
2022-10-17T00:19:18.243Z,5.70
2022-10-17T00:20:18.349Z,8.10
2022-10-17T00:21:18.332Z,11.00
2022-10-17T00:22:18.213Z,8.60
2022-10-17T00:23:18.197Z,5.50
2022-10-17T00:24:18.407Z,7.10
2022-10-17T00:25:18.171Z,7.00
2022-10-17T00:26:18.168Z,6.40
2022-10-17T00:27:18.116Z,6.30
2022-10-17T00:28:19.029Z,5.40
2022-10-17T00:29:19.003Z,6.60
2022-10-17T00:30:18.114Z,5.90
2022-10-17T00:31:18.110Z,4.10
2022-10-17T00:32:18.150Z,7.10
2022-10-17T00:33:18.171Z,5.40
2022-10-17T00:34:18.067Z,6.70
2022-10-17T00:35:18.167Z,5.00
2022-10-17T00:36:18.114Z,5.00
2022-10-17T00:37:18.090Z,4.00
2022-10-17T00:38:18.060Z,6.50
2022-10-17T00:39:18.028Z,4.80
2022-10-17T00:40:18.040Z,5.20
2022-10-17T00:41:18.092Z,5.40
2022-10-17T00:42:18.036Z,4.30
2022-10-17T00:43:18.053Z,4.90
2022-10-17T00:44:18.031Z,5.60
2022-10-17T00:45:17.940Z,5.70
2022-10-17T00:46:18.205Z,4.40
2022-10-17T00:47:17.964Z,4.60
2022-10-17T00:48:22.495Z,4.50
2022-10-17T00:49:19.923Z,5.00
2022-10-17T00:50:17.964Z,5.20
2022-10-17T00:51:17.920Z,5.70
2022-10-17T00:52:17.968Z,3.80
2022-10-17T00:53:17.897Z,3.90
2022-10-17T00:54:17.875Z,3.80
2022-10-17T00:55:17.878Z,5.00
2022-10-17T00:56:17.866Z,8.60
2022-10-17T00:57:17.895Z,7.10
2022-10-17T00:58:18.504Z,6.00
2022-10-17T00:59:17.878Z,4.70
2022-10-17T01:00:17.808Z,6.10
2022-10-17T01:01:17.889Z,5.60
2022-10-17T01:02:17.836Z,4.50
2022-10-17T01:03:17.835Z,4.60
2022-10-17T01:04:17.840Z,4.60
2022-10-17T01:05:17.823Z,4.30
2022-10-17T01:06:17.777Z,4.60
2022-10-17T01:07:17.749Z,7.90
2022-10-17T01:08:17.790Z,7.60
2022-10-17T01:09:17.862Z,14.30
2022-10-17T01:10:17.818Z,6.00
2022-10-17T01:11:17.744Z,5.00
2022-10-17T01:12:17.672Z,6.10
2022-10-17T01:13:17.734Z,4.90
2022-10-17T01:14:17.638Z,5.10
2022-10-17T01:15:17.669Z,4.20
2022-10-17T01:16:17.881Z,4.70
2022-10-17T01:17:17.635Z,4.80
2022-10-17T01:18:17.655Z,4.40
2022-10-17T01:19:17.652Z,4.40
2022-10-17T01:20:18.649Z,3.70
2022-10-17T01:21:17.632Z,3.30
2022-10-17T01:22:17.630Z,3.30
2022-10-17T01:23:17.694Z,2.50
2022-10-17T01:24:17.580Z,3.20
2022-10-17T01:25:17.579Z,4.20
2022-10-17T01:26:17.624Z,3.70
2022-10-17T01:27:17.591Z,3.30
2022-10-17T01:28:17.612Z,2.80
2022-10-17T01:29:17.540Z,3.00
2022-10-17T01:30:17.508Z,3.00
2022-10-17T01:31:17.515Z,2.50
2022-10-17T01:32:17.459Z,3.00
2022-10-17T01:33:17.541Z,3.30
2022-10-17T01:34:17.494Z,2.70
2022-10-17T01:35:17.534Z,2.80
2022-10-17T01:36:17.510Z,3.10
2022-10-17T01:37:17.423Z,4.40
2022-10-17T01:38:18.403Z,3.50
2022-10-17T01:39:17.417Z,3.20
2022-10-17T01:40:17.529Z,4.00
2022-10-17T01:41:17.435Z,3.40
2022-10-17T01:42:18.016Z,5.40
2022-10-17T01:43:17.404Z,3.80
2022-10-17T01:44:17.411Z,3.40
2022-10-17T01:45:17.373Z,3.40
2022-10-17T01:46:17.389Z,4.70
2022-10-17T01:47:17.401Z,2.50
2022-10-17T01:48:17.303Z,4.10
2022-10-17T01:49:17.381Z,3.90
2022-10-17T01:50:17.424Z,3.10
2022-10-17T01:51:17.349Z,2.70
2022-10-17T01:52:17.514Z,5.70
2022-10-17T01:53:17.339Z,4.70
2022-10-17T01:54:17.262Z,3.20
2022-10-17T01:55:17.252Z,2.90
2022-10-17T01:56:17.245Z,3.70
2022-10-17T01:57:17.251Z,4.00
2022-10-17T01:58:17.337Z,3.40
2022-10-17T01:59:17.259Z,3.50
2022-10-17T02:00:17.315Z,5.10
2022-10-17T02:01:17.284Z,4.70
2022-10-17T02:02:17.290Z,4.30
2022-10-17T02:03:17.239Z,3.80
2022-10-17T02:04:17.217Z,3.60
2022-10-17T02:05:17.207Z,3.00
2022-10-17T02:06:17.150Z,3.50
2022-10-17T02:07:17.169Z,3.20
2022-10-17T02:08:17.176Z,4.10
2022-10-17T02:09:17.117Z,5.00
2022-10-17T02:10:17.090Z,5.10
2022-10-17T02:11:17.159Z,4.10
2022-10-17T02:12:18.010Z,4.10
2022-10-17T02:13:17.187Z,5.90
2022-10-17T02:14:17.160Z,6.80
2022-10-17T02:15:17.059Z,4.60
2022-10-17T02:16:17.121Z,7.30
2022-10-17T02:17:17.050Z,4.40
2022-10-17T02:18:17.099Z,7.80
2022-10-17T02:19:17.020Z,6.00
2022-10-17T02:20:17.025Z,6.40
2022-10-17T02:21:17.958Z,9.00
2022-10-17T02:22:17.007Z,5.10
2022-10-17T02:24:16.937Z,9.80
2022-10-17T02:25:16.993Z,4.70
2022-10-17T02:26:16.945Z,8.40
2022-10-17T02:27:16.940Z,6.80
2022-10-17T02:28:17.052Z,7.80
2022-10-17T02:29:16.953Z,7.20
2022-10-17T02:30:16.925Z,7.10
2022-10-17T02:31:16.916Z,8.10
2022-10-17T03:17:03.914Z,6.30
2022-10-17T03:18:05.245Z,4.30
2022-10-17T03:19:05.654Z,3.10
2022-10-17T03:20:05.001Z,3.80
2022-10-17T03:21:05.658Z,3.90
2022-10-17T03:22:04.987Z,3.90
2022-10-17T03:23:05.014Z,4.40
2022-10-17T03:24:05.030Z,3.30
2022-10-17T03:25:05.640Z,3.80
2022-10-17T03:26:04.974Z,3.40
2022-10-17T03:27:04.934Z,4.40
2022-10-17T03:28:04.930Z,5.00
2022-10-17T03:29:04.983Z,3.50
2022-10-17T03:30:04.965Z,3.30
2022-10-17T03:31:04.914Z,4.00
2022-10-17T03:32:04.921Z,2.40
2022-10-17T03:33:04.895Z,2.50
2022-10-17T03:34:04.883Z,4.50
2022-10-17T03:35:04.881Z,4.00
2022-10-17T03:36:04.835Z,2.30
2022-10-17T03:37:05.138Z,4.80
2022-10-17T03:38:04.858Z,3.20
2022-10-17T03:39:04.903Z,6.00
2022-10-17T03:40:04.783Z,5.40
2022-10-17T03:41:04.801Z,2.50
2022-10-17T03:42:04.830Z,3.30
2022-10-17T03:43:04.750Z,4.30
2022-10-17T03:44:04.750Z,3.60
2022-10-17T03:45:04.778Z,3.90
2022-10-17T03:46:04.862Z,8.70
2022-10-17T03:47:04.715Z,3.60
2022-10-17T03:48:04.759Z,8.60
2022-10-17T03:49:04.816Z,3.20
2022-10-17T03:50:04.749Z,3.50
2022-10-17T03:51:04.727Z,3.00
2022-10-17T03:52:05.268Z,2.20
2022-10-17T03:53:04.695Z,2.80
2022-10-17T03:54:04.697Z,3.10
2022-10-17T03:55:04.690Z,2.00
2022-10-17T03:56:04.672Z,2.50
2022-10-17T03:57:04.726Z,2.10
2022-10-17T03:58:05.613Z,5.40
2022-10-17T03:59:04.631Z,2.10
2022-10-17T04:00:04.688Z,2.40
2022-10-17T04:01:04.719Z,2.00
2022-10-17T04:02:04.640Z,1.70
2022-10-17T04:03:04.720Z,3.20
2022-10-17T04:04:04.530Z,2.60
2022-10-17T04:05:04.650Z,2.50
2022-10-17T04:06:04.540Z,3.40
2022-10-17T04:07:04.538Z,3.00
2022-10-17T04:08:04.963Z,3.70
2022-10-17T04:09:04.499Z,5.40
2022-10-17T04:10:04.531Z,3.00
2022-10-17T04:11:04.512Z,2.80
2022-10-17T04:12:05.120Z,2.20
2022-10-17T04:13:04.524Z,3.90
2022-10-17T04:14:04.481Z,4.00
2022-10-17T04:15:04.481Z,4.20
2022-10-17T04:16:04.517Z,3.20
2022-10-17T04:17:04.426Z,2.70
2022-10-17T04:19:05.006Z,2.90
2022-10-17T04:20:04.395Z,3.10
2022-10-17T04:21:04.344Z,3.20
2022-10-17T04:22:04.377Z,2.70
2022-10-17T04:23:04.390Z,2.30
2022-10-17T04:24:04.390Z,3.10
2022-10-17T04:25:04.397Z,3.10
2022-10-17T04:26:04.336Z,2.90
2022-10-17T04:27:04.356Z,5.20
2022-10-17T04:28:04.353Z,2.90
2022-10-17T04:29:04.375Z,2.80
2022-10-17T04:30:04.289Z,2.50
2022-10-17T04:31:04.284Z,3.40
2022-10-17T04:32:04.247Z,3.60
2022-10-17T04:33:04.364Z,2.60
2022-10-17T04:34:04.296Z,4.00
2022-10-17T04:35:04.300Z,2.50
2022-10-17T04:36:04.250Z,3.10
2022-10-17T04:37:04.347Z,3.40
2022-10-17T04:38:04.228Z,3.00
2022-10-17T04:39:04.350Z,3.00
2022-10-17T04:40:04.159Z,3.00
2022-10-17T04:41:04.220Z,6.40
2022-10-17T04:42:04.239Z,5.00
2022-10-17T04:43:04.155Z,3.80
2022-10-17T04:44:05.182Z,6.70
2022-10-17T04:45:04.123Z,6.30
2022-10-17T04:46:04.126Z,10.30
2022-10-17T04:47:04.124Z,5.50
2022-10-17T04:48:04.216Z,6.20
2022-10-17T04:49:04.240Z,5.10
2022-10-17T04:50:04.104Z,5.30
2022-10-17T04:51:04.843Z,4.00
2022-10-17T04:52:04.141Z,3.30
2022-10-17T04:53:04.129Z,6.30
2022-10-17T04:54:04.174Z,7.20
2022-10-17T04:55:04.092Z,4.40
2022-10-17T04:56:04.191Z,2.80
2022-10-17T04:57:04.052Z,5.90
2022-10-17T04:58:04.063Z,3.90
2022-10-17T04:59:04.057Z,3.40
2022-10-17T05:00:04.045Z,3.20
2022-10-17T05:01:04.051Z,3.40
2022-10-17T05:02:04.048Z,4.20
2022-10-17T05:03:03.968Z,4.20
2022-10-17T05:04:03.974Z,5.90
2022-10-17T05:05:03.917Z,5.70
2022-10-17T05:06:03.957Z,6.10
2022-10-17T05:07:04.031Z,4.00
2022-10-17T05:08:04.002Z,3.40
2022-10-17T05:09:03.984Z,3.20
2022-10-17T05:10:04.051Z,4.30
2022-10-17T05:11:04.053Z,3.50
2022-10-17T05:12:06.651Z,3.50
2022-10-17T05:13:04.935Z,4.70
2022-10-17T05:14:04.095Z,3.60
2022-10-17T05:15:03.812Z,2.60
2022-10-17T05:16:03.896Z,4.20
2022-10-17T05:17:04.010Z,4.40
2022-10-17T05:18:03.908Z,3.40
2022-10-17T05:19:03.924Z,4.00
2022-10-17T05:20:03.862Z,3.10
2022-10-17T05:21:03.996Z,3.30
2022-10-17T05:22:03.935Z,2.90
2022-10-17T05:23:03.776Z,3.30
2022-10-17T05:24:03.792Z,2.40
2022-10-17T05:25:03.784Z,2.30
2022-10-17T05:26:03.829Z,2.70
2022-10-17T05:27:03.767Z,4.60
2022-10-17T05:28:03.871Z,2.40
2022-10-17T05:29:03.737Z,3.20
2022-10-17T05:30:03.736Z,2.40
2022-10-17T05:31:03.797Z,2.80
2022-10-17T05:32:03.883Z,3.50
2022-10-17T05:33:03.719Z,2.10
2022-10-17T05:34:03.671Z,2.00
2022-10-17T05:35:03.630Z,2.50
2022-10-17T05:36:03.798Z,3.20
2022-10-17T05:37:03.717Z,2.70
2022-10-17T05:38:03.648Z,2.70
2022-10-17T05:39:04.661Z,2.40
2022-10-17T05:40:03.593Z,2.10
2022-10-17T05:41:03.683Z,2.40
2022-10-17T05:42:03.684Z,2.60
2022-10-17T05:43:03.675Z,1.80
2022-10-17T05:44:05.571Z,1.60
2022-10-17T05:45:03.562Z,2.20
2022-10-17T05:46:03.582Z,2.40
2022-10-17T05:47:03.554Z,1.80
2022-10-17T05:48:03.645Z,2.00
2022-10-17T05:49:14.709Z,1.60
2022-10-17T05:50:05.571Z,2.00
2022-10-17T05:51:03.582Z,1.70
2022-10-17T05:52:03.501Z,1.80
2022-10-17T05:53:04.088Z,1.90
2022-10-17T05:54:03.456Z,1.50
2022-10-17T05:55:03.596Z,1.50
2022-10-17T05:56:03.578Z,1.90
2022-10-17T05:57:03.544Z,2.10
2022-10-17T05:58:03.517Z,2.20
2022-10-17T05:59:03.475Z,1.70
2022-10-17T06:00:03.498Z,2.00
2022-10-17T06:01:03.571Z,2.40
2022-10-17T06:02:03.577Z,1.80
2022-10-17T06:03:03.442Z,2.60
2022-10-17T06:04:03.532Z,2.10
2022-10-17T06:05:03.357Z,2.40
2022-10-17T06:06:03.351Z,1.90
2022-10-17T06:07:03.349Z,1.90
2022-10-17T06:08:03.342Z,2.00
2022-10-17T06:09:03.306Z,1.90
2022-10-17T06:10:03.361Z,1.70
2022-10-17T06:11:06.117Z,2.10
2022-10-17T06:12:05.416Z,1.60
2022-10-17T06:13:03.256Z,3.50
2022-10-17T06:14:03.839Z,3.00
2022-10-17T06:15:03.284Z,2.40
2022-10-17T06:16:03.330Z,2.20
2022-10-17T06:17:03.396Z,1.40
2022-10-17T06:18:03.243Z,1.90
2022-10-17T06:19:03.396Z,1.90
2022-10-17T06:20:03.195Z,1.80
2022-10-17T06:26:19.596Z,2.10
2022-10-17T06:27:20.488Z,2.70
2022-10-17T06:28:20.108Z,2.40
2022-10-17T06:29:20.021Z,2.20
2022-10-17T06:30:19.997Z,2.10
2022-10-17T06:31:20.072Z,3.00
2022-10-17T06:32:20.042Z,2.50
2022-10-17T06:33:19.961Z,2.10
2022-10-17T06:34:19.923Z,3.00
2022-10-17T06:35:20.225Z,2.60
2022-10-17T06:36:20.832Z,2.90
2022-10-17T06:37:20.070Z,3.60
2022-10-17T06:38:19.962Z,3.50
2022-10-17T06:39:19.946Z,3.10
2022-10-17T06:40:19.932Z,2.30
2022-10-17T06:41:20.001Z,2.60
2022-10-17T06:42:20.107Z,4.00
2022-10-17T06:43:20.707Z,3.20
2022-10-17T06:44:20.551Z,2.90
2022-10-17T06:45:19.908Z,2.40
2022-10-17T06:46:20.092Z,2.00
2022-10-17T06:47:20.247Z,1.80
2022-10-17T06:48:19.829Z,2.70
2022-10-17T06:49:19.832Z,2.20
2022-10-17T06:50:19.824Z,3.60
2022-10-17T06:51:19.804Z,2.00
2022-10-17T06:52:19.852Z,2.30
2022-10-17T06:53:19.741Z,2.20
2022-10-17T06:54:19.700Z,2.90
2022-10-17T06:55:22.769Z,3.00
2022-10-17T06:56:19.757Z,2.00
2022-10-17T06:57:19.791Z,2.80
2022-10-17T06:58:19.724Z,2.60
2022-10-17T06:59:19.703Z,3.00
2022-10-17T07:00:19.746Z,2.10
2022-10-17T07:01:19.687Z,2.60
2022-10-17T07:02:19.742Z,2.90
2022-10-17T07:03:21.003Z,2.60
2022-10-17T07:04:19.651Z,3.40
2022-10-17T07:05:19.650Z,3.00
2022-10-17T07:06:19.656Z,3.00
2022-10-17T07:07:19.658Z,3.80
2022-10-17T07:08:19.759Z,2.30
2022-10-17T07:09:19.603Z,4.20
2022-10-17T07:10:19.625Z,3.30
2022-10-17T07:11:19.719Z,3.40
2022-10-17T07:12:19.781Z,2.80
2022-10-17T07:13:20.478Z,2.40
2022-10-17T07:14:19.685Z,3.10
2022-10-17T07:15:19.615Z,3.30
2022-10-17T07:16:19.620Z,3.00
2022-10-17T07:17:19.612Z,2.40
2022-10-17T07:18:19.551Z,2.60
2022-10-17T07:19:19.560Z,3.30
2022-10-17T07:20:19.570Z,2.40
2022-10-17T07:21:19.482Z,3.20
2022-10-17T07:22:19.578Z,3.10
2022-10-17T07:23:19.583Z,3.00
2022-10-17T07:24:19.529Z,2.60
2022-10-17T07:25:19.527Z,2.10
2022-10-17T07:26:19.660Z,2.80
2022-10-17T07:27:19.560Z,2.90
2022-10-17T07:28:19.609Z,2.70
2022-10-17T07:29:19.653Z,2.20
2022-10-17T07:30:19.663Z,3.70
2022-10-17T07:31:19.886Z,2.20
2022-10-17T07:32:19.500Z,2.50
2022-10-17T07:33:19.623Z,3.20
2022-10-17T07:34:19.518Z,2.40
2022-10-17T07:35:19.483Z,2.50
2022-10-17T07:36:19.375Z,2.10
2022-10-17T07:37:19.480Z,2.10
2022-10-17T07:38:19.630Z,1.90
2022-10-17T07:40:48.382Z,2.10
2022-10-17T07:41:59.197Z,2.10
2022-10-17T07:42:57.441Z,3.30
2022-10-17T07:45:39.588Z,2.70
2022-10-17T07:46:39.739Z,2.20
2022-10-17T07:47:39.671Z,2.40
2022-10-17T07:48:39.775Z,3.70
2022-10-17T07:49:40.020Z,2.50
2022-10-17T07:50:39.561Z,3.30
2022-10-17T07:51:39.599Z,2.30
2022-10-17T07:52:39.429Z,2.70
2022-10-17T07:53:40.883Z,2.40
2022-10-17T07:54:39.532Z,2.00
2022-10-17T07:55:40.805Z,2.80
2022-10-17T07:56:41.889Z,2.50
2022-10-17T07:57:40.851Z,2.60
2022-10-17T07:58:40.726Z,2.90
2022-10-17T07:59:40.897Z,3.80
2022-10-17T08:00:41.744Z,3.80
2022-10-17T08:01:40.678Z,2.30
2022-10-17T08:02:40.675Z,2.30
2022-10-17T08:03:40.688Z,3.20
2022-10-17T08:04:40.722Z,3.40
2022-10-17T08:05:41.341Z,7.80
2022-10-17T08:06:40.719Z,4.30
2022-10-17T08:07:40.808Z,2.60
2022-10-17T08:08:40.702Z,2.10
2022-10-17T08:09:40.578Z,2.20
2022-10-17T08:10:40.560Z,2.20
2022-10-17T08:11:40.687Z,3.20
2022-10-17T08:12:40.626Z,2.80
2022-10-17T08:13:40.713Z,3.00
2022-10-17T08:14:41.205Z,3.40
2022-10-17T08:15:40.846Z,3.30
2022-10-17T08:16:40.645Z,2.70
2022-10-17T08:18:18.925Z,2.90
2022-10-17T08:19:13.203Z,4.70
2022-10-17T08:20:13.150Z,2.90
2022-10-17T08:21:08.111Z,3.40
2022-10-17T08:21:41.604Z,2.70
2022-10-17T08:22:41.975Z,3.70
2022-10-17T08:23:40.638Z,3.30
2022-10-17T08:24:40.934Z,3.00
2022-10-17T08:26:13.139Z,3.30
2022-10-17T08:26:43.516Z,4.00
2022-10-17T08:27:40.930Z,2.90
2022-10-17T08:29:16.362Z,2.80
2022-10-17T08:29:41.138Z,3.00
2022-10-17T08:30:42.784Z,3.80
2022-10-17T08:31:46.468Z,2.80
2022-10-17T08:32:41.038Z,3.00
2022-10-17T08:34:14.585Z,3.30
2022-10-17T08:34:46.390Z,3.20
2022-10-17T08:35:42.158Z,2.60
2022-10-17T08:36:40.756Z,3.00
2022-10-17T08:37:40.575Z,5.30
2022-10-17T08:38:43.493Z,4.30
2022-10-17T08:39:43.421Z,2.80
2022-10-17T08:40:40.708Z,3.70
2022-10-17T08:41:40.937Z,4.40
2022-10-17T08:42:42.513Z,3.70
2022-10-17T08:43:43.387Z,3.40
2022-10-17T08:44:41.730Z,3.90
2022-10-17T08:45:44.754Z,3.20
2022-10-17T08:46:43.837Z,3.60
2022-10-17T08:47:43.196Z,2.90
2022-10-17T08:48:44.135Z,2.60
2022-10-17T08:49:48.032Z,2.60
2022-10-17T08:50:40.965Z,2.70
2022-10-17T08:51:41.149Z,2.30
2022-10-17T08:52:45.041Z,3.30
2022-10-17T08:53:47.486Z,3.20
2022-10-17T08:54:44.927Z,3.00
2022-10-17T08:55:51.470Z,4.40
2022-10-17T08:56:48.489Z,2.50
2022-10-17T08:57:43.992Z,4.80
2022-10-17T08:58:53.707Z,2.80
2022-10-17T09:01:13.104Z,5.10
2022-10-17T09:02:41.450Z,3.20
2022-10-17T09:06:17.002Z,2.60
2022-10-17T09:07:18.360Z,3.00
2022-10-17T09:08:22.732Z,3.30
2022-10-17T09:09:36.458Z,3.80
2022-10-17T09:10:56.984Z,3.20
2022-10-17T09:11:42.905Z,2.00
2022-10-17T09:12:48.691Z,3.80
2022-10-17T09:14:56.649Z,2.10
2022-10-17T09:15:50.152Z,3.50
2022-10-17T09:16:39.105Z,3.30
2022-10-17T09:18:17.565Z,3.20
2022-10-17T09:19:04.019Z,4.40
2022-10-17T09:19:29.855Z,3.50
2022-10-17T09:21:08.429Z,3.60
2022-10-17T09:21:46.630Z,2.00
2022-10-17T09:23:25.891Z,2.60
2022-10-17T09:24:29.679Z,3.70
2022-10-17T09:25:32.509Z,3.60
2022-10-17T09:26:45.589Z,2.60
2022-10-17T09:27:46.621Z,3.40
2022-10-17T09:28:43.239Z,4.80
2022-10-17T09:29:30.848Z,2.90
2022-10-17T09:30:47.226Z,3.40
2022-10-17T09:33:22.978Z,2.40
2022-10-17T09:33:53.386Z,5.70
2022-10-17T09:34:27.484Z,3.40
2022-10-17T09:35:30.193Z,2.70
2022-10-17T09:36:35.807Z,3.10
2022-10-17T09:38:47.711Z,3.00
2022-10-17T09:38:55.335Z,2.10
2022-10-17T09:39:53.716Z,3.20
2022-10-17T09:41:32.034Z,2.80
2022-10-17T09:42:12.808Z,4.50
2022-10-17T09:43:04.726Z,3.70
2022-10-17T09:43:55.808Z,2.20
2022-10-17T09:45:01.533Z,4.40
2022-10-17T09:46:21.466Z,2.50
2022-10-17T09:47:09.561Z,2.50
2022-10-17T09:48:35.167Z,3.30
2022-10-17T09:50:05.831Z,4.70
2022-10-17T09:50:11.839Z,2.60
2022-10-17T09:51:25.840Z,2.20
2022-10-17T09:52:45.147Z,3.60
2022-10-17T09:53:42.926Z,2.50
2022-10-17T09:54:26.853Z,3.00
2022-10-17T09:56:17.125Z,3.10
2022-10-17T09:58:37.145Z,3.30
2022-10-17T10:01:04.073Z,1.70
2022-10-17T10:02:12.073Z,1.90
2022-10-17T10:03:33.285Z,4.20
2022-10-17T10:04:10.653Z,5.50
2022-10-17T10:05:39.467Z,2.50
2022-10-17T10:06:05.541Z,2.50
2022-10-17T10:07:38.642Z,2.30
2022-10-17T10:10:09.388Z,4.40
2022-10-17T10:11:17.031Z,4.10
2022-10-17T10:12:17.809Z,2.80
2022-10-17T10:16:08.395Z,5.60
2022-10-17T10:18:35.360Z,2.00
2022-10-17T10:21:02.070Z,4.70
2022-10-17T10:23:31.036Z,1.60
2022-10-17T10:24:39.453Z,3.50
2022-10-17T10:25:38.770Z,4.20
2022-10-17T10:26:32.623Z,4.00
2022-10-17T10:29:06.905Z,1.90
2022-10-17T10:31:36.220Z,2.30
2022-10-17T10:34:15.595Z,1.30
2022-10-17T10:35:15.693Z,3.40
2022-10-17T10:36:23.616Z,3.80
2022-10-17T10:37:17.023Z,2.00
2022-10-17T10:38:25.313Z,1.70
2022-10-17T10:39:15.553Z,2.30
2022-10-17T10:40:15.880Z,3.20
2022-10-17T10:43:04.905Z,1.80
2022-10-17T10:44:23.253Z,2.40
2022-10-17T10:45:00.751Z,2.90
2022-10-17T10:46:09.497Z,2.00
2022-10-17T10:47:08.476Z,2.20
2022-10-17T10:48:08.878Z,2.40
2022-10-17T10:49:07.487Z,2.20
2022-10-17T10:52:54.609Z,3.20
2022-10-17T10:54:03.365Z,2.90
2022-10-17T10:55:02.330Z,5.20
2022-10-17T10:57:21.630Z,1.60
2022-10-17T10:58:30.413Z,2.90
2022-10-17T10:59:29.237Z,3.40
2022-10-17T11:00:23.110Z,2.70
2022-10-17T11:01:55.257Z,3.80
2022-10-17T11:02:23.008Z,2.20
2022-10-17T11:03:23.086Z,3.20
2022-10-17T11:04:22.919Z,2.10
2022-10-17T11:05:22.988Z,1.70
2022-10-17T11:06:55.276Z,2.10
2022-10-17T11:07:55.230Z,3.00
2022-10-17T11:08:23.028Z,2.60
2022-10-17T11:09:22.767Z,2.90
2022-10-17T11:13:51.841Z,1.20
2022-10-17T11:16:40.421Z,1.20
2022-10-17T11:17:48.100Z,3.40
2022-10-17T11:19:50.996Z,3.30
2022-10-17T11:20:50.863Z,3.70
2022-10-17T11:21:52.578Z,4.00
2022-10-17T11:23:26.233Z,2.90
2022-10-17T11:23:52.065Z,3.90
2022-10-17T11:25:25.852Z,2.10
2022-10-17T11:25:52.584Z,2.80
2022-10-17T11:27:18.628Z,1.80
2022-10-17T11:27:52.156Z,2.60
2022-10-17T11:28:52.183Z,2.70
2022-10-17T11:29:52.095Z,4.30
2022-10-17T11:34:17.216Z,2.90
2022-10-17T11:35:51.063Z,2.50
2022-10-17T11:36:53.632Z,1.90
2022-10-17T11:37:19.044Z,2.50
2022-10-17T11:38:18.757Z,3.20
2022-10-17T11:40:05.174Z,2.60
2022-10-17T11:40:20.595Z,3.20
2022-10-17T11:41:51.921Z,4.40
2022-10-17T11:42:53.205Z,2.60
2022-10-17T11:45:31.407Z,2.90
2022-10-17T11:46:39.131Z,2.00
2022-10-17T11:47:31.396Z,2.40
2022-10-17T11:49:07.549Z,2.50
2022-10-17T11:49:35.526Z,2.70
2022-10-17T11:52:56.101Z,3.40
2022-10-17T11:57:55.017Z,1.10
2022-10-17T12:03:47.593Z,3.20
2022-10-17T12:06:59.570Z,5.30
2022-10-17T12:07:59.586Z,1.70
2022-10-17T12:09:07.278Z,1.70
2022-10-17T12:11:26.533Z,2.10
2022-10-17T12:12:26.884Z,3.80
2022-10-17T12:13:26.593Z,2.00
2022-10-17T12:14:27.723Z,3.20
2022-10-17T12:18:39.009Z,3.30
2022-10-17T12:20:13.080Z,2.40
2022-10-17T12:24:47.636Z,5.60
2022-10-17T12:26:24.064Z,2.90
2022-10-17T12:26:49.105Z,3.20
2022-10-17T12:30:32.758Z,4.00
2022-10-17T12:31:40.578Z,2.00
2022-10-17T12:33:08.681Z,3.90
2022-10-17T12:33:34.385Z,5.50
2022-10-17T12:35:06.554Z,3.40
2022-10-17T12:36:00.544Z,3.50
2022-10-17T12:37:06.561Z,2.80
2022-10-17T12:38:07.992Z,3.40
2022-10-17T12:39:06.388Z,1.80
2022-10-17T12:40:06.785Z,2.20
2022-10-17T12:40:34.345Z,1.80
2022-10-17T12:48:26.271Z,2.90
2022-10-17T12:56:25.919Z,2.20
2022-10-17T13:04:19.969Z,1.60
2022-10-17T13:05:27.704Z,5.40
2022-10-17T13:12:56.577Z,1.80
2022-10-17T13:22:55.314Z,2.40
2022-10-17T13:24:30.332Z,2.60
2022-10-17T13:24:56.448Z,3.30
2022-10-17T13:26:30.170Z,3.60
2022-10-17T13:26:56.363Z,2.80
2022-10-17T13:28:23.892Z,2.20
2022-10-17T13:28:56.844Z,2.60
2022-10-17T13:32:12.368Z,4.30
2022-10-17T13:38:23.706Z,4.10
2022-10-17T13:39:38.450Z,2.40
2022-10-17T13:46:38.359Z,3.90
2022-10-17T13:47:44.807Z,1.50
2022-10-17T13:49:18.836Z,3.30
2022-10-17T13:50:00.462Z,5.50
2022-10-17T13:50:45.560Z,3.70
2022-10-17T13:51:48.883Z,2.70
2022-10-17T13:52:51.267Z,1.80
2022-10-17T13:53:54.230Z,3.50
2022-10-17T13:54:57.996Z,2.60
2022-10-17T13:55:36.564Z,2.70
2022-10-17T13:56:53.406Z,2.80
2022-10-17T13:57:46.638Z,2.60
2022-10-17T13:58:38.531Z,3.40
2022-10-17T13:59:47.089Z,2.70
2022-10-17T14:00:37.333Z,4.30
2022-10-17T14:01:36.167Z,3.00
2022-10-17T14:02:35.027Z,1.60
2022-10-17T14:03:48.139Z,3.40
2022-10-17T14:05:15.132Z,3.30
2022-10-17T14:05:58.348Z,2.90
2022-10-17T14:07:51.693Z,1.80
2022-10-17T14:08:12.442Z,3.90
2022-10-17T14:09:26.832Z,3.60
2022-10-17T14:10:21.456Z,3.00
2022-10-17T14:11:05.574Z,3.70
2022-10-17T14:13:24.298Z,2.30
2022-10-17T14:13:39.834Z,2.10
2022-10-17T14:14:37.681Z,1.60
2022-10-17T14:15:33.283Z,4.10
2022-10-17T14:16:46.568Z,3.40
2022-10-17T14:17:55.360Z,3.20
2022-10-17T14:18:59.541Z,4.00
2022-10-17T14:20:47.817Z,1.70
2022-10-17T14:21:51.395Z,2.10
2022-10-17T14:22:28.868Z,5.10
2022-10-17T14:23:52.812Z,4.50
2022-10-17T14:24:46.175Z,2.70
2022-10-17T14:25:42.642Z,3.40
2022-10-17T14:29:32.672Z,3.40
2022-10-17T14:30:55.024Z,2.20
2022-10-17T14:31:34.769Z,1.60
2022-10-17T14:35:18.193Z,4.60
2022-10-17T14:36:17.016Z,3.20
2022-10-17T14:40:29.572Z,3.00
2022-10-17T14:41:42.577Z,2.80
2022-10-17T14:52:52.169Z,3.20
2022-10-17T14:54:43.032Z,2.50
2022-10-17T15:01:00.277Z,2.10
2022-10-17T15:11:25.023Z,1.90
2022-10-17T15:14:22.978Z,2.30
2022-10-17T15:16:27.195Z,3.90
2022-10-17T15:16:58.862Z,3.80
2022-10-17T15:18:07.155Z,2.60
2022-10-17T15:19:10.030Z,2.60
2022-10-17T15:20:16.129Z,3.70
